Time;durP1;ratioP1;P1;durP2;ratioP2;P2;SDS_P1;SDS_P2;PMS_P1;PMS_P2;Temp;Humidity;BMP_temperature;BMP_pressure;BME280_temperature;BME280_humidity;BME280_pressure;Samples;Min_cycle;Max_cycle;Signal;HPM_P1;HPM_P2
2022/08/26 00:02:39;;;;;;;4.13;1.25;;;;;;;18.00;61.94;101148.53;4974205;28;20051;-45
2022/08/26 00:05:27;;;;;;;5.10;1.30;;;;;;;17.99;62.02;101154.53;4977524;28;20047;-46
2022/08/26 00:08:15;;;;;;;5.78;1.45;;;;;;;17.96;61.85;101155.28;4979041;28;20134;-46
2022/08/26 00:11:03;;;;;;;4.72;2.00;;;;;;;17.95;62.01;101159.31;4976541;28;20071;-49
2022/08/26 00:13:50;;;;;;;4.97;1.13;;;;;;;17.94;62.07;101146.47;4966294;28;20185;-44
2022/08/26 00:16:39;;;;;;;6.45;1.25;;;;;;;17.98;61.84;101158.50;4967515;28;20149;-46
2022/08/26 00:19:13;;;;;;;5.07;1.33;;;;;;;17.98;61.95;101159.31;4976439;28;20050;-46
2022/08/26 00:21:40;;;;;;;3.65;1.10;;;;;;;17.97;61.90;101159.72;4976035;28;20154;-46
2022/08/26 00:24:07;;;;;;;4.15;0.93;;;;;;;17.95;62.01;101164.91;4973992;28;20071;-46
2022/08/26 00:26:33;;;;;;;3.13;0.82;;;;;;;17.94;62.13;101164.09;4976828;28;20050;-45
2022/08/26 00:29:00;;;;;;;7.07;1.10;;;;;;;17.91;62.09;101161.25;4975870;28;20093;-45
2022/08/26 00:31:27;;;;;;;6.50;1.50;;;;;;;17.90;62.02;101160.44;4977509;28;20500;-45
2022/08/26 00:33:58;;;;;;;6.15;1.48;;;;;;;17.88;62.16;101157.22;4976965;28;20097;-44
2022/08/26 00:36:25;;;;;;;5.53;1.40;;;;;;;17.89;62.19;101161.66;4976062;28;20090;-45
2022/08/26 00:38:56;;;;;;;6.82;1.10;;;;;;;17.88;62.28;101157.22;4973649;28;20057;-45
2022/08/26 00:41:23;;;;;;;3.97;1.17;;;;;;;17.84;62.46;101155.59;4977344;28;20089;-45
2022/08/26 00:43:52;;;;;;;2.55;0.98;;;;;;;17.82;62.44;101152.38;4959476;28;20145;-44
2022/08/26 00:46:49;;;;;;;2.60;1.10;;;;;;;17.80;62.62;101155.53;4974851;28;20091;-45
2022/08/26 00:49:43;;;;;;;5.68;1.35;;;;;;;17.72;62.95;101137.06;4974435;28;20416;-45
2022/08/26 00:52:31;;;;;;;4.40;1.38;;;;;;;17.70;62.80;101135.81;4965674;28;20449;-48
2022/08/26 00:55:39;;;;;;;4.60;0.93;;;;;;;17.70;62.97;101135.81;4974922;28;20039;-45
2022/08/26 00:58:30;;;;;;;5.85;0.80;;;;;;;17.68;63.03;101132.59;4973468;28;20054;-46
2022/08/26 01:01:17;;;;;;;5.15;1.67;;;;;;;17.63;63.12;101119.78;4975263;28;20182;-45
2022/08/26 01:04:12;;;;;;;4.43;1.33;;;;;;;17.58;63.27;101120.91;4974459;28;20177;-49
2022/08/26 01:07:00;;;;;;;1.50;0.65;;;;;;;17.53;63.55;101124.03;4975267;28;20145;-44
2022/08/26 01:09:48;;;;;;;5.65;1.00;;;;;;;17.50;63.68;101135.19;4954168;28;20082;-45
2022/08/26 01:12:52;;;;;;;3.70;0.80;;;;;;;17.45;63.89;101141.09;4974990;28;20141;-48
2022/08/26 01:15:46;;;;;;;2.97;1.10;;;;;;;17.43;63.81;101138.69;4977940;28;20058;-47
2022/08/26 01:18:34;;;;;;;4.60;1.13;;;;;;;17.43;64.10;101135.09;4991611;28;20144;-45
2022/08/26 01:22:02;;;;;;;4.25;0.70;;;;;;;17.39;64.41;101126.66;4987797;28;20078;-44
2022/08/26 01:24:49;;;;;;;3.38;0.60;;;;;;;17.35;64.29;101136.19;4985623;28;20472;-46
2022/08/26 01:27:37;;;;;;;4.95;0.70;;;;;;;17.29;64.33;101132.13;4992965;28;20117;-47
2022/08/26 01:30:26;;;;;;;4.90;0.70;;;;;;;17.24;64.48;101136.06;4977987;28;20058;-47
2022/08/26 01:33:18;;;;;;;5.20;1.13;;;;;;;17.19;64.60;101132.78;4993601;28;20084;-44
2022/08/26 01:40:12;;;;;;;5.60;1.20;;;;;;;17.01;65.00;101146.56;4962594;28;20050;-45
2022/08/26 01:51:17;;;;;;;4.72;0.98;;;;;;;16.89;65.42;101157.97;4963078;28;20057;-46
2022/08/26 02:01:03;;;;;;;4.72;0.90;;;;;;;17.02;65.87;101160.16;4966862;28;20046;-44
2022/08/26 02:03:57;;;;;;;3.88;1.00;;;;;;;17.06;66.15;101157.41;4960519;28;20051;-50
2022/08/26 02:06:24;;;;;;;12.50;1.55;;;;;;;17.10;66.13;101168.66;4960315;28;20055;-47
2022/08/26 02:08:54;;;;;;;1.33;0.70;;;;;;;17.13;66.23;101163.09;4962967;28;20050;-51
2022/08/26 02:11:39;;;;;;;6.50;0.70;;;;;;;17.15;66.37;101171.13;4961991;28;20257;-50
2022/08/26 02:14:14;;;;;;;2.15;0.68;;;;;;;17.12;66.37;101172.69;4962758;28;20162;-48
2022/08/26 02:16:45;;;;;;;3.33;0.60;;;;;;;17.15;66.51;101177.53;4966321;28;20140;-49
2022/08/26 02:19:16;;;;;;;4.13;0.85;;;;;;;17.15;66.57;101171.94;4945347;28;20100;-47
2022/08/26 02:21:47;;;;;;;2.80;1.17;;;;;;;17.17;66.76;101177.94;4961250;28;20038;-50
2022/08/26 02:24:24;;;;;;;3.05;0.80;;;;;;;17.11;67.28;101175.84;4962451;28;20047;-43
2022/08/26 02:26:54;;;;;;;2.30;0.88;;;;;;;17.10;67.88;101174.25;4961377;28;20379;-48
2022/08/26 02:29:26;;;;;;;2.40;0.98;;;;;;;17.09;68.19;101183.81;4961652;28;20165;-48
2022/08/26 02:31:54;;;;;;;;;;;;;;;17.03;68.11;101181.34;4964127;28;20093;-48
2022/08/26 02:34:27;;;;;;;4.82;1.08;;;;;;;17.03;68.42;101184.16;4961355;28;20012;-50
2022/08/26 02:37:05;;;;;;;2.47;1.30;;;;;;;17.01;69.02;101178.13;4961763;28;20463;-48
2022/08/26 02:39:35;;;;;;;1.98;0.75;;;;;;;17.02;69.13;101173.34;4962697;28;20088;-44
2022/08/26 02:42:04;;;;;;;1.00;0.70;;;;;;;16.98;69.40;101172.47;4961032;28;20045;-47
2022/08/26 02:44:31;;;;;;;1.77;0.85;;;;;;;16.95;69.75;101173.22;4961557;28;20058;-47
2022/08/26 02:46:59;;;;;;;3.05;0.93;;;;;;;16.89;69.90;101180.34;4951012;28;20050;-46
2022/08/26 02:49:29;;;;;;;0.93;0.68;;;;;;;16.84;70.27;101175.88;4961849;28;20039;-47
2022/08/26 02:51:56;;;;;;;1.05;0.63;;;;;;;16.80;70.57;101180.63;4961959;28;20606;-48
2022/08/26 02:54:27;;;;;;;4.97;1.33;;;;;;;16.75;70.71;101177.34;4962621;28;20065;-45
2022/08/26 02:56:55;;;;;;;3.53;0.75;;;;;;;16.73;71.43;101182.50;4961907;28;20038;-47
2022/08/26 02:59:22;;;;;;;2.78;0.85;;;;;;;16.74;71.48;101184.91;4961934;28;20042;-51
2022/08/26 03:05:28;;;;;;;4.45;1.02;;;;;;;16.67;71.94;101173.63;4933242;28;20058;-49
2022/08/26 03:08:13;;;;;;;2.08;0.80;;;;;;;16.70;72.13;101169.28;4960213;28;20034;-48
2022/08/26 03:10:40;;;;;;;2.67;0.95;;;;;;;16.72;72.11;101169.69;4958546;28;20039;-43
2022/08/26 03:13:06;;;;;;;2.88;0.88;;;;;;;16.74;72.34;101175.72;4951376;28;20049;-49
2022/08/26 03:15:35;;;;;;;2.33;0.85;;;;;;;16.77;72.50;101184.16;4955469;28;20062;-48
2022/08/26 03:18:03;;;;;;;4.82;1.10;;;;;;;16.81;72.64;101173.81;4955325;28;20495;-49
2022/08/26 03:20:30;;;;;;;3.28;0.65;;;;;;;16.82;72.74;101183.84;4953807;28;20097;-47
2022/08/26 03:22:57;;;;;;;2.17;0.70;;;;;;;16.81;72.87;101182.22;4936843;28;20651;-45
2022/08/26 03:32:17;;;;;;;1.27;0.70;;;;;;;16.81;73.19;101173.03;4951584;28;22269;-49
2022/08/26 03:34:45;;;;;;;1.95;0.85;;;;;;;16.82;73.22;101174.66;4961546;28;20861;-47
2022/08/26 03:37:12;;;;;;;4.05;0.60;;;;;;;16.80;73.48;101174.22;4963905;28;20136;-51
2022/08/26 03:39:40;;;;;;;2.45;1.10;;;;;;;16.78;73.69;101169.03;4960662;28;20066;-47
2022/08/26 03:42:07;;;;;;;3.60;1.13;;;;;;;16.78;73.95;101162.63;4962919;28;20054;-48
2022/08/26 03:44:36;;;;;;;3.03;0.70;;;;;;;16.77;73.93;101170.19;4961158;28;20046;-45
2022/08/26 03:47:07;;;;;;;2.95;0.73;;;;;;;16.79;73.93;101170.63;4961508;28;20737;-46
2022/08/26 03:57:35;;;;;;;1.38;0.80;;;;;;;16.57;73.78;101165.09;4961165;28;20041;-48
2022/08/26 04:06:18;;;;;;;1.85;0.80;;;;;;;16.27;74.40;101171.34;4963395;28;20444;-45
2022/08/26 04:08:45;;;;;;;1.10;0.47;;;;;;;16.20;74.90;101171.22;4961209;28;20050;-43
2022/08/26 04:11:18;;;;;;;1.40;0.70;;;;;;;16.12;74.85;101171.50;4963022;28;20097;-47
2022/08/26 04:13:48;;;;;;;2.40;0.57;;;;;;;16.07;75.27;101163.41;4985607;28;20129;-45
2022/08/26 04:16:16;;;;;;;1.00;0.90;;;;;;;16.05;75.09;101163.78;4989105;28;20042;-47
2022/08/26 04:18:43;;;;;;;1.50;0.77;;;;;;;16.06;75.20;101168.19;4981338;28;20054;-42
2022/08/26 04:21:13;;;;;;;4.38;1.15;;;;;;;16.07;75.50;101155.81;4984571;28;20047;-45
2022/08/26 04:28:09;;;;;;;3.45;0.93;;;;;;;15.95;74.87;101164.41;4975377;28;20034;-43
2022/08/26 04:30:39;;;;;;;1.95;0.70;;;;;;;15.86;74.83;101172.19;4990954;28;20071;-43
2022/08/26 04:33:21;;;;;;;1.58;1.48;;;;;;;15.81;75.20;101164.94;4985899;28;20054;-44
2022/08/26 04:36:00;;;;;;;3.13;1.50;;;;;;;15.78;75.05;101164.84;4969691;28;20043;-45
2022/08/26 04:39:05;;;;;;;1.85;1.65;;;;;;;15.78;75.26;101156.47;4988840;28;20563;-46
2022/08/26 04:41:32;;;;;;;3.13;1.40;;;;;;;15.75;75.28;101157.25;4975001;28;20400;-44
2022/08/26 04:44:12;;;;;;;1.80;1.70;;;;;;;15.73;75.45;101159.59;4989465;28;20039;-43
2022/08/26 04:46:39;;;;;;;3.38;1.70;;;;;;;15.70;75.36;101163.13;4970913;28;20070;-48
2022/08/26 04:49:29;;;;;;;3.38;2.22;;;;;;;15.70;75.40;101168.72;4979911;28;20031;-45
2022/08/26 04:52:02;;;;;;;2.67;1.15;;;;;;;15.61;75.61;101176.50;4978161;28;23122;-44
2022/08/26 04:57:39;;;;;;;2.00;1.13;;;;;;;15.50;75.88;101175.47;4976920;28;20492;-44
2022/08/26 05:00:10;;;;;;;2.10;1.45;;;;;;;15.46;76.15;101169.03;4973661;28;20047;-46
2022/08/26 05:03:26;;;;;;;1.77;1.63;;;;;;;15.41;76.55;101177.66;4982508;28;20046;-43
2022/08/26 05:05:57;;;;;;;2.92;2.00;;;;;;;15.45;76.56;101172.94;4979410;28;20039;-43
2022/08/26 05:09:05;;;;;;;2.17;1.20;;;;;;;15.47;76.82;101176.22;4959807;28;20043;-43
2022/08/26 05:11:32;;;;;;;1.83;1.42;;;;;;;15.45;76.77;101172.94;4958850;28;20047;-45
2022/08/26 05:14:00;;;;;;;2.90;0.90;;;;;;;15.42;77.05;101180.09;4959715;28;20031;-46
2022/08/26 05:31:51;;;;;;;1.40;0.73;;;;;;;15.32;78.01;101179.84;4960355;28;20046;-45
2022/08/26 05:34:21;;;;;;;2.28;1.08;;;;;;;15.29;78.55;101184.19;4952564;28;20098;-48
2022/08/26 05:36:51;;;;;;;1.25;0.98;;;;;;;15.30;78.80;101193.38;4963876;28;20142;-44
2022/08/26 05:39:20;;;;;;;0.68;0.52;;;;;;;15.29;79.26;101192.56;4958216;28;20035;-47
2022/08/26 05:41:46;;;;;;;3.67;0.80;;;;;;;15.29;79.73;101197.31;4957249;28;20038;-49
2022/08/26 05:44:16;;;;;;;0.98;0.70;;;;;;;15.30;80.03;101196.16;4959815;28;20054;-51
2022/08/26 05:46:44;;;;;;;1.40;0.88;;;;;;;15.32;80.16;101196.59;4959976;28;20117;-49
2022/08/26 05:49:13;;;;;;;1.10;0.90;;;;;;;15.31;80.37;101206.94;4960393;28;20623;-44
2022/08/26 05:51:44;;;;;;;1.45;1.00;;;;;;;15.27;80.44;101206.06;4963106;28;20053;-47
2022/08/26 05:54:11;;;;;;;0.80;0.80;;;;;;;15.25;80.59;101200.84;4972858;28;20043;-47
2022/08/26 05:56:38;;;;;;;1.15;0.93;;;;;;;15.27;80.55;101206.84;4964986;28;20043;-42
2022/08/26 05:59:12;;;;;;;0.95;0.82;;;;;;;15.31;80.50;101208.91;4975566;28;20050;-43
2022/08/26 06:01:42;;;;;;;2.10;0.80;;;;;;;15.24;80.69;101207.63;4961215;28;20102;-43
2022/08/26 06:04:10;;;;;;;1.63;0.63;;;;;;;15.25;80.65;101208.41;4981300;28;20455;-46
2022/08/26 06:06:40;;;;;;;1.80;0.55;;;;;;;15.22;80.41;101209.94;4988106;28;20055;-43
2022/08/26 06:09:10;;;;;;;1.25;0.98;;;;;;;15.20;80.60;101209.50;4982465;28;20042;-44
2022/08/26 06:11:38;;;;;;;2.00;0.63;;;;;;;15.23;80.76;101213.53;4988960;28;20093;-44
2022/08/26 06:14:06;;;;;;;0.45;0.28;;;;;;;15.26;80.82;101229.56;4993367;28;20104;-43
2022/08/26 06:16:37;;;;;;;1.75;0.40;;;;;;;15.25;80.64;101219.56;4990141;28;20489;-44
2022/08/26 06:19:07;;;;;;;1.13;0.57;;;;;;;15.29;80.54;101214.06;4985734;28;20039;-44
2022/08/26 06:21:39;;;;;;;0.32;0.25;;;;;;;15.33;80.66;101220.53;4988441;28;20053;-45
2022/08/26 06:27:02;;;;;;;0.28;0.20;;;;;;;15.30;80.60;101226.84;4983680;28;20097;-42
2022/08/26 06:29:32;;;;;;;0.85;0.25;;;;;;;15.30;80.67;101232.44;4976738;28;20039;-44
2022/08/26 06:32:01;;;;;;;1.58;0.30;;;;;;;15.37;80.55;101232.56;4953456;28;20145;-46
2022/08/26 06:34:28;;;;;;;0.77;0.32;;;;;;;15.46;80.47;101236.00;4963882;28;20061;-46
2022/08/26 06:36:58;;;;;;;0.65;0.35;;;;;;;15.52;80.34;101228.94;4976516;28;20589;-45
2022/08/26 06:39:27;;;;;;;0.43;0.30;;;;;;;15.51;80.19;101232.91;4972226;28;20093;-49
2022/08/26 06:41:59;;;;;;;1.02;0.65;;;;;;;15.53;80.23;101236.16;4966051;28;20055;-45
2022/08/26 06:44:29;;;;;;;0.30;0.20;;;;;;;15.54;80.26;101237.78;4953281;29;20407;-45
2022/08/26 06:46:56;;;;;;;0.30;0.20;;;;;;;15.54;79.94;101243.34;4958231;28;20065;-47
2022/08/26 06:49:22;;;;;;;1.33;0.20;;;;;;;15.55;79.90;101250.53;4972294;28;20043;-49
2022/08/26 06:51:58;;;;;;;0.65;0.20;;;;;;;15.57;80.01;101253.75;4971965;28;20046;-44
2022/08/26 06:54:30;;;;;;;0.32;0.20;;;;;;;15.64;79.91;101251.13;4972336;28;20046;-43
2022/08/26 06:56:57;;;;;;;0.22;0.20;;;;;;;15.69;79.83;101251.66;4972111;28;20407;-45
2022/08/26 06:59:24;;;;;;;4.03;0.30;;;;;;;15.71;79.57;101254.88;4962798;28;20106;-51
2022/08/26 07:01:53;;;;;;;0.82;0.28;;;;;;;15.73;79.54;101257.28;4953390;28;20106;-50
2022/08/26 07:04:20;;;;;;;0.57;0.10;;;;;;;15.70;79.42;101261.63;4951989;29;20412;-45
2022/08/26 07:06:51;;;;;;;0.50;0.20;;;;;;;15.65;79.12;101256.34;4964604;28;20053;-50
2022/08/26 07:09:21;;;;;;;0.28;0.17;;;;;;;15.68;79.32;101260.38;4972043;28;20081;-49
2022/08/26 07:11:50;;;;;;;0.32;0.10;;;;;;;15.78;78.94;101262.56;4972060;28;20097;-49
2022/08/26 07:14:17;;;;;;;5.28;0.35;;;;;;;15.81;78.53;101268.25;4954201;28;20051;-45
2022/08/26 07:16:47;;;;;;;0.80;0.30;;;;;;;15.78;78.42;101266.19;4967586;28;20046;-42
2022/08/26 07:19:18;;;;;;;0.55;0.30;;;;;;;15.80;78.57;101268.63;4972847;28;20042;-51
2022/08/26 07:22:01;;;;;;;0.50;0.20;;;;;;;15.78;78.50;101265.38;4973257;28;20089;-47
2022/08/26 07:24:33;;;;;;;1.75;0.30;;;;;;;15.77;78.76;101269.34;4987519;28;20038;-44
2022/08/26 07:31:13;;;;;;;0.93;0.65;;;;;;;15.77;78.79;101277.72;4967227;28;20392;-47
2022/08/26 07:33:43;;;;;;;0.68;0.40;;;;;;;15.78;78.75;101282.13;4973454;28;20079;-46
2022/08/26 07:36:12;;;;;;;0.82;0.30;;;;;;;15.75;78.99;101282.88;4974844;28;20042;-48
2022/08/26 07:38:40;;;;;;;1.33;0.40;;;;;;;15.70;78.88;101286.75;4976664;28;20046;-47
2022/08/26 07:41:07;;;;;;;0.68;0.35;;;;;;;15.63;79.32;101277.41;4965582;28;20555;-44
2022/08/26 07:43:36;;;;;;;0.82;0.30;;;;;;;15.60;79.77;101283.72;4964808;28;20047;-45
2022/08/26 07:46:05;;;;;;;0.50;0.20;;;;;;;15.63;79.56;101277.41;4971620;28;20472;-44
2022/08/26 07:48:35;;;;;;;0.30;0.28;;;;;;;15.64;79.75;101276.25;4974498;28;20057;-47
2022/08/26 07:51:04;;;;;;;0.32;0.13;;;;;;;15.60;79.96;101280.94;4960736;28;20053;-46
2022/08/26 07:53:33;;;;;;;0.95;0.30;;;;;;;15.66;80.03;101277.50;4972633;28;20039;-46
2022/08/26 08:00:14;;;;;;;0.75;0.20;;;;;;;15.69;80.27;101285.16;4962797;28;20374;-45
2022/08/26 08:03:04;;;;;;;1.50;0.30;;;;;;;15.68;80.25;101282.72;4973066;28;20105;-48
2022/08/26 08:09:14;;;;;;;2.40;0.30;;;;;;;15.76;80.36;101282.50;4965629;28;20039;-44
2022/08/26 08:12:35;;;;;;;0.52;0.20;;;;;;;15.73;80.54;101285.19;4975946;28;20051;-46
2022/08/26 08:19:38;;;;;;;0.65;0.20;;;;;;;15.81;80.55;101292.56;4976408;28;20039;-47
2022/08/26 08:29:41;;;;;;;0.73;0.30;;;;;;;15.83;80.45;101293.81;4977591;28;20066;-45
2022/08/26 08:40:44;;;;;;;0.80;0.60;;;;;;;15.77;80.52;101297.28;4974155;28;20455;-47
2022/08/26 08:47:55;;;;;;;1.27;0.80;;;;;;;15.78;80.87;101296.06;4975335;28;20047;-46
2022/08/26 08:50:40;;;;;;;2.50;1.00;;;;;;;15.84;80.93;101303.00;4964229;28;20082;-48
2022/08/26 08:53:16;;;;;;;2.22;1.45;;;;;;;15.95;80.78;101292.84;4980647;28;20066;-47
2022/08/26 08:59:46;;;;;;;1.50;0.60;;;;;;;15.96;80.24;101300.06;4983827;28;20042;-48
2022/08/26 09:02:28;;;;;;;1.42;0.50;;;;;;;15.92;80.29;101299.16;4978533;28;20053;-45
2022/08/26 09:05:30;;;;;;;8.05;0.85;;;;;;;16.03;80.58;101294.63;4951959;29;20059;-49
2022/08/26 09:08:10;;;;;;;0.75;0.70;;;;;;;16.19;80.14;101291.72;4957109;28;20098;-46
2022/08/26 09:10:45;;;;;;;0.68;0.57;;;;;;;16.26;79.92;101298.25;4959154;28;20059;-48
2022/08/26 09:13:16;;;;;;;0.22;0.20;;;;;;;16.28;79.33;101303.50;4945631;28;20441;-45
2022/08/26 09:16:08;;;;;;;0.98;0.38;;;;;;;16.24;79.08;101313.78;4950182;28;20079;-47
2022/08/26 09:19:09;;;;;;;0.88;0.22;;;;;;;16.24;78.98;101299.81;4963956;28;20050;-45
2022/08/26 09:21:37;;;;;;;0.50;0.28;;;;;;;16.30;78.97;101304.75;4961096;28;20050;-45
2022/08/26 09:24:05;;;;;;;1.48;0.50;;;;;;;16.38;78.84;101300.91;4957874;29;20047;-45
2022/08/26 09:34:18;;;;;;;0.80;0.17;;;;;;;16.50;78.25;101322.25;4948606;28;20039;-44
2022/08/26 09:36:52;;;;;;;;;;;;;;;16.53;78.14;101329.13;4969738;28;20070;-43
2022/08/26 09:43:32;;;;;;;2.92;0.40;;;;;;;16.63;77.55;101326.53;4955881;28;20133;-44
2022/08/26 09:50:35;;;;;;;0.38;0.28;;;;;;;16.81;77.43;101340.84;4956666;28;20039;-47
2022/08/26 10:05:18;;;;;;;0.70;0.70;;;;;;;17.03;76.43;101332.41;4947991;29;20039;-46
2022/08/26 10:07:48;;;;;;;0.55;0.28;;;;;;;17.01;76.07;101326.41;4976553;28;20061;-48
2022/08/26 10:10:50;;;;;;;0.80;0.20;;;;;;;17.02;75.72;101332.81;4974506;28;20050;-47
2022/08/26 10:21:01;;;;;;;0.10;0.10;;;;;;;17.15;74.82;101339.81;4977320;28;20096;-46
2022/08/26 10:23:54;;;;;;;0.20;0.20;;;;;;;17.17;74.69;101345.84;4963739;28;20046;-47
2022/08/26 10:30:59;;;;;;;0.98;0.45;;;;;;;17.32;74.10;101339.28;4965532;28;20042;-48
2022/08/26 10:33:26;;;;;;;0.47;0.47;;;;;;;17.42;73.78;101338.63;4974360;28;20555;-48
2022/08/26 10:36:55;;;;;;;0.98;0.35;;;;;;;17.45;73.38;101343.47;4981285;28;20069;-48
2022/08/26 10:48:11;;;;;;;0.47;0.20;;;;;;;17.40;73.14;101349.41;4969450;28;20038;-46
2022/08/26 10:51:01;;;;;;;0.75;0.40;;;;;;;17.47;73.10;101341.09;4976785;28;20057;-48
2022/08/26 10:58:17;;;;;;;2.08;0.50;;;;;;;17.47;73.02;101357.88;4962947;28;20046;-47
2022/08/26 11:05:24;;;;;;;2.10;1.50;;;;;;;17.55;72.73;101348.44;4974419;28;20086;-47
2022/08/26 11:08:19;;;;;;;0.25;0.20;;;;;;;17.62;72.24;101354.16;4963100;28;20069;-44
2022/08/26 11:15:52;;;;;;;0.73;0.38;;;;;;;17.62;71.72;101356.97;4971000;28;20042;-45
2022/08/26 11:18:41;;;;;;;3.63;0.30;;;;;;;17.67;71.93;101355.00;4931193;29;20056;-44
2022/08/26 11:25:28;;;;;;;0.15;0.10;;;;;;;17.82;71.22;101359.66;4965468;28;20081;-48
2022/08/26 11:27:58;;;;;;;1.67;0.82;;;;;;;17.85;71.09;101361.66;4960744;28;20038;-46
2022/08/26 11:30:51;;;;;;;2.83;0.95;;;;;;;17.85;70.92;101361.66;4956785;28;20178;-49
2022/08/26 11:34:01;;;;;;;4.47;0.52;;;;;;;17.89;70.95;101351.31;4966583;28;20448;-45
2022/08/26 11:36:46;;;;;;;2.80;1.30;;;;;;;18.03;70.49;101363.50;4956212;28;20499;-47
2022/08/26 11:39:19;;;;;;;2.15;0.60;;;;;;;18.08;70.13;101353.97;4957254;28;20097;-46
2022/08/26 11:41:48;;;;;;;1.63;0.88;;;;;;;18.25;70.16;101354.19;4977385;28;20408;-48
2022/08/26 11:44:24;;;;;;;3.47;2.60;;;;;;;18.42;69.74;101355.59;4971368;28;20493;-47
2022/08/26 11:46:58;;;;;;;2.08;0.65;;;;;;;18.63;69.48;101355.03;4970781;28;20043;-47
2022/08/26 11:49:27;;;;;;;0.57;0.38;;;;;;;18.95;68.89;101360.97;4980590;28;20074;-42
2022/08/26 11:55:42;;;;;;;3.72;2.63;;;;;;;19.42;67.58;101356.16;4978658;28;20043;-46
2022/08/26 11:58:30;;;;;;;0.50;0.40;;;;;;;19.59;66.93;101359.50;4978366;28;20536;-44
2022/08/26 12:10:06;;;;;;;2.60;0.50;;;;;;;19.46;66.41;101358.97;4947102;29;20036;-49
2022/08/26 12:12:57;;;;;;;1.73;1.50;;;;;;;19.42;66.32;101363.78;4939548;29;20414;-50
2022/08/26 12:15:52;;;;;;;1.92;0.90;;;;;;;19.41;66.03;101370.59;4929059;29;20127;-47
2022/08/26 12:22:33;;;;;;;0.73;0.50;;;;;;;19.43;65.48;101365.41;4938944;29;20441;-46
2022/08/26 12:25:08;;;;;;;1.30;0.90;;;;;;;19.52;64.92;101363.03;4948339;29;20055;-46
2022/08/26 12:27:44;;;;;;;1.35;0.93;;;;;;;19.52;64.85;101371.47;4939490;29;20043;-45
2022/08/26 12:34:42;;;;;;;2.88;1.40;;;;;;;19.08;65.10;101373.50;4938790;29;20036;-44
2022/08/26 12:37:33;;;;;;;2.30;0.95;;;;;;;18.93;64.84;101374.56;4927582;29;20063;-47
2022/08/26 12:44:36;;;;;;;1.92;0.80;;;;;;;18.80;65.08;101376.84;4941581;29;20429;-46
2022/08/26 12:47:26;;;;;;;2.25;0.90;;;;;;;18.87;65.00;101381.72;4938717;29;20266;-46
2022/08/26 12:50:46;;;;;;;5.32;1.10;;;;;;;19.08;64.44;101373.50;4940753;29;20450;-45
2022/08/26 12:53:15;;;;;;;1.42;1.27;;;;;;;19.12;63.95;101391.16;4936677;29;20043;-45
2022/08/26 12:55:49;;;;;;;0.85;0.77;;;;;;;19.11;64.14;101378.34;4936594;29;20051;-47
2022/08/26 13:01:56;;;;;;;1.95;0.60;;;;;;;19.35;63.47;101380.56;4938162;29;20372;-46
2022/08/26 13:04:44;;;;;;;2.95;2.08;;;;;;;19.48;63.36;101369.84;4949957;29;20055;-50
2022/08/26 13:07:32;;;;;;;3.17;1.05;;;;;;;19.50;62.63;101373.06;4941718;28;20131;-46
2022/08/26 13:14:37;;;;;;;0.50;0.50;;;;;;;19.40;62.65;101385.84;4961759;28;20094;-44
2022/08/26 13:17:04;;;;;;;0.65;0.40;;;;;;;19.43;62.63;101379.44;4973563;28;20050;-43
2022/08/26 13:23:22;;;;;;;3.50;0.68;;;;;;;19.86;62.08;101369.25;4978122;28;20035;-49
2022/08/26 13:29:31;;;;;;;2.13;0.68;;;;;;;20.21;61.37;101369.44;4975129;28;20077;-47
2022/08/26 13:31:58;;;;;;;1.05;0.82;;;;;;;20.18;60.68;101366.59;4966217;28;20053;-45
2022/08/26 13:34:26;;;;;;;0.50;0.50;;;;;;;20.14;60.46;101374.22;4976448;28;20043;-47
2022/08/26 13:43:55;;;;;;;3.90;0.70;;;;;;;20.13;60.07;101372.59;4976847;28;20288;-50
2022/08/26 13:50:16;;;;;;;0.95;0.50;;;;;;;19.28;60.33;101383.28;4970288;28;20071;-46
2022/08/26 13:52:43;;;;;;;1.40;0.45;;;;;;;19.08;60.60;101384.72;4976177;28;20481;-52
2022/08/26 13:55:09;;;;;;;2.33;0.88;;;;;;;18.97;61.15;101379.03;4976885;28;20101;-49
2022/08/26 13:57:37;;;;;;;1.30;1.00;;;;;;;18.89;61.19;101373.72;4975821;28;20134;-47
2022/08/26 14:00:05;;;;;;;0.80;0.40;;;;;;;18.75;61.19;101383.63;4980516;28;20043;-50
2022/08/26 14:02:36;;;;;;;2.85;0.60;;;;;;;18.75;61.03;101380.81;4976144;28;20049;-49
2022/08/26 14:05:04;;;;;;;2.47;0.75;;;;;;;18.71;61.23;101377.19;4971378;28;20054;-50
2022/08/26 14:07:31;;;;;;;2.30;1.02;;;;;;;18.75;61.45;101383.63;4975777;28;20043;-50
2022/08/26 14:09:58;;;;;;;2.58;1.27;;;;;;;18.84;61.36;101374.88;4976047;28;20047;-48
2022/08/26 14:12:24;;;;;;;2.65;1.38;;;;;;;18.92;61.33;101376.56;4974495;28;20050;-46
2022/08/26 14:19:04;;;;;;;0.30;0.20;;;;;;;19.11;60.99;101369.94;4975316;28;20042;-45
2022/08/26 14:21:51;;;;;;;2.38;0.70;;;;;;;19.18;60.85;101376.41;4963761;28;20133;-48
2022/08/26 14:24:38;;;;;;;1.20;0.40;;;;;;;19.28;60.23;101372.06;4976444;28;20185;-50
2022/08/26 14:27:58;;;;;;;0.80;0.35;;;;;;;19.34;60.44;101376.13;4974870;28;20412;-44
2022/08/26 14:34:19;;;;;;;1.67;0.73;;;;;;;19.32;60.24;101376.53;4975358;28;20114;-49
2022/08/26 14:44:43;;;;;;;3.40;0.80;;;;;;;19.36;60.30;101370.91;4981719;28;20050;-44
2022/08/26 14:47:30;;;;;;;3.55;2.10;;;;;;;19.44;60.01;101367.00;4969814;28;20046;-46
2022/08/26 14:50:24;;;;;;;4.47;0.73;;;;;;;19.54;59.81;101371.09;4973635;28;20521;-49
2022/08/26 14:59:49;;;;;;;2.03;0.50;;;;;;;19.61;59.19;101366.31;4963470;28;20039;-43
2022/08/26 15:02:16;;;;;;;5.03;1.50;;;;;;;19.73;58.87;101366.00;4980043;28;20034;-44
2022/08/26 15:20:58;;;;;;;4.72;1.15;;;;;;;19.57;58.46;101359.88;4973885;28;20046;-44
2022/08/26 15:23:25;;;;;;;2.60;1.23;;;;;;;19.55;58.55;101353.03;4970820;28;20046;-44
2022/08/26 15:25:53;;;;;;;4.07;1.35;;;;;;;19.58;58.44;101353.06;4975245;28;20109;-47
2022/08/26 15:28:20;;;;;;;3.17;0.60;;;;;;;19.54;57.84;101357.84;4970729;28;20236;-46
2022/08/26 15:30:49;;;;;;;1.55;0.52;;;;;;;19.55;57.87;101351.03;4974501;28;20039;-46
2022/08/26 15:37:07;;;;;;;3.45;0.65;;;;;;;19.71;57.48;101359.16;4972908;28;20035;-49
2022/08/26 15:43:25;;;;;;;3.25;0.60;;;;;;;20.02;57.26;101348.06;4957171;28;20116;-51
2022/08/26 15:50:06;;;;;;;4.70;0.52;;;;;;;20.29;56.53;101347.81;4974177;28;20082;-44
2022/08/26 15:52:33;;;;;;;3.03;1.02;;;;;;;20.35;56.12;101354.66;4972547;28;20573;-46
2022/08/26 16:06:27;;;;;;;4.53;0.95;;;;;;;20.26;55.94;101345.78;4973817;28;20039;-47
2022/08/26 16:08:54;;;;;;;2.85;0.80;;;;;;;20.34;55.94;101341.78;4973981;28;20051;-48
2022/08/26 16:11:22;;;;;;;2.38;0.88;;;;;;;20.29;55.42;101342.19;4980373;28;20488;-45
2022/08/26 16:13:50;;;;;;;1.35;0.77;;;;;;;20.28;55.62;101346.22;4974686;28;20089;-43
2022/08/26 16:16:18;;;;;;;5.57;1.30;;;;;;;20.30;55.74;101341.00;4974080;28;20488;-46
2022/08/26 16:18:45;;;;;;;1.73;0.60;;;;;;;20.22;55.55;101331.69;4973536;28;20042;-49
2022/08/26 16:21:18;;;;;;;2.58;0.75;;;;;;;20.21;55.81;101334.88;4975955;28;20121;-44
2022/08/26 16:23:46;;;;;;;2.03;0.80;;;;;;;20.21;55.55;101335.69;4977846;28;20047;-48
2022/08/26 16:26:16;;;;;;;4.00;0.70;;;;;;;20.32;55.26;101344.19;4973029;28;20050;-46
2022/08/26 16:41:15;;;;;;;2.33;0.45;;;;;;;20.14;54.79;101329.25;4973119;28;20073;-45
2022/08/26 16:43:42;;;;;;;2.72;0.77;;;;;;;20.13;55.03;101324.81;4977294;28;20046;-46
2022/08/26 16:46:10;;;;;;;1.98;0.73;;;;;;;20.13;54.42;101322.00;4975990;28;20031;-50
2022/08/26 16:48:38;;;;;;;2.83;0.50;;;;;;;20.07;54.60;101326.41;4982885;28;20050;-51
2022/08/26 16:55:14;;;;;;;4.60;2.13;;;;;;;20.04;54.63;101317.56;4973995;28;20035;-48
2022/08/26 16:57:43;;;;;;;3.03;1.13;;;;;;;20.02;54.89;101322.78;4977425;28;20070;-48
2022/08/26 17:00:15;;;;;;;4.03;1.90;;;;;;;20.05;54.45;101332.44;4977698;28;20130;-45
2022/08/26 17:02:43;;;;;;;;;;;;;;;19.97;54.24;101331.59;4985189;28;20050;-44
2022/08/26 17:05:10;;;;;;;6.13;2.28;;;;;;;19.96;54.66;101329.97;4976991;28;20021;-45
2022/08/26 17:07:38;;;;;;;2.67;0.93;;;;;;;19.93;54.78;101332.78;4976827;28;20460;-50
2022/08/26 17:10:06;;;;;;;2.65;1.15;;;;;;;19.91;54.91;101323.91;4977192;28;20045;-45
2022/08/26 17:12:35;;;;;;;4.45;1.10;;;;;;;19.87;54.79;101340.78;4964231;28;20055;-44
2022/08/26 17:15:05;;;;;;;3.63;0.68;;;;;;;19.79;54.66;101332.72;4977064;28;20400;-46